Alamosa, CO

10:35 AM MDT on April 24, 2017 (GMT -0600)
Alamosa | | Change Station
Active Advisory: Fire Weather Warning

Elev 7543 ft 37.46 °N, 105.86 °W | Updated 41 seconds ago

Clear
Clear
63.0 °F
Feels Like 63.0 °F
N
15.0
Wind Variable Wind from SSW

Today
High -- | Low -- °F
--% Chance of Precip.
Yesterday
High -- | Low -- °F
Precip. -- in
Pressure 29.65 in
Visibility 10.0 miles
Clouds Clear
Dew Point 20 °F
Humidity 19%
Rainfall 0.00 in
Snow Depth Not available.
6:16 AM 7:47 PM
Waning Crescent, 5% visible
METAR KALS 241552Z AUTO 22011G21KT 10SM CLR 16/M08 A2988 RMK AO2 SLP038 T01561083
Pressure 29.65 in
Visibility 10.0 miles
Clouds Clear
Dew Point 20 °F
Humidity 19%
Rainfall 0.00 in
Snow Depth Not available.
6:16 AM 7:47 PM
Waning Crescent, 5% visible
METAR KALS 241552Z AUTO 22011G21KT 10SM CLR 16/M08 A2988 RMK AO2 SLP038 T01561083

Get Your Daily Forecast Email!

Thanks for signing up!

Be on the lookout for a verification email in your inbox.

You'll start receiving severe weather alerts in your inbox..

×

10-Day Weather Forecast

Almanac

Astronomy

Apr. 24, 2017 Rise Set
Actual Time
Civil Twilight
Nautical Twilight
Astronomical Twilight
Moon
Length of Visible Light
Length of Day
Tomorrow will be .
, % of the Moon is Illuminated

Today's Extremes

State Highs State Lows

Community

WunderPhotos

WunderBlog® & News

Nearby

Air Quality

  Air Quality AQ Index Pollutant
Not available.

Snow Depth

Station Depth Elevation

Earthquake Activity

City Distance Mag. Time & Date
Minimum magnitude displayed is 2.5.

Coastal Water Temperatures

Place Temperature

Stations

Nearby Weather Stations

Station Location Temp. Windchill Dew Point Humidity Wind Precip. Elev Updated Type
                   

Watches & Warnings

Fire Weather Warning
Issued: 4:48 AM MDT Apr. 24, 2017 – National Weather Service

... Red flag warning remains in effect from noon today to 7 PM MDT
this evening for gusty winds and low relative humidity for fire
weather zone 224...

* affected area... fire weather zone 224.

* Winds... west 20 to 30 gusting to 40 mph.

* Relative humidity... as low as 13 percent.

* Impacts... conditions will be favorable for the rapid ignition,
growth and spread of fires.

Precautionary/preparedness actions...

A red flag warning means that critical fire weather conditions
are either occurring now, or will shortly. A combination of
strong winds, low relative humidity, and dry fuels could lead
to extreme fire behavior.